Time;durP1;ratioP1;P1;durP2;ratioP2;P2;SDS_P1;SDS_P2;PMS_P1;PMS_P2;Temp;Humidity;BMP_temperature;BMP_pressure;BME280_temperature;BME280_humidity;BME280_pressure;Samples;Min_cycle;Max_cycle;Signal;HPM_P1;HPM_P2
2021/12/11 00:00:14;;;;;;;23.90;14.10;;;4.20;99.90;;;;;;4975427;28;20204;-83
2021/12/11 00:02:42;;;;;;;19.97;13.20;;;4.20;99.90;;;;;;4971362;28;20283;-87
2021/12/11 00:05:12;;;;;;;22.27;15.70;;;4.20;99.90;;;;;;4970316;28;20201;-87
2021/12/11 00:07:39;;;;;;;22.10;15.37;;;4.20;99.90;;;;;;4969358;28;20212;-89
2021/12/11 00:10:16;;;;;;;21.63;15.40;;;4.20;99.90;;;;;;4969963;28;20205;-83
2021/12/11 00:12:47;;;;;;;26.20;16.70;;;4.20;99.90;;;;;;4972795;28;20231;-79
2021/12/11 00:15:18;;;;;;;22.17;15.73;;;4.30;99.90;;;;;;4977211;28;20203;-87
2021/12/11 00:17:45;;;;;;;21.23;14.83;;;4.30;99.90;;;;;;4989096;28;20280;-84
2021/12/11 00:20:17;;;;;;;19.57;15.00;;;4.30;99.90;;;;;;4998325;28;20188;-88
2021/12/11 00:22:45;;;;;;;16.93;13.63;;;4.30;99.90;;;;;;5009169;28;20204;-88
2021/12/11 00:25:15;;;;;;;17.93;12.73;;;4.30;99.90;;;;;;5003058;28;20196;-82
2021/12/11 00:27:44;;;;;;;18.97;13.40;;;4.30;99.90;;;;;;4992095;28;20211;-87
2021/12/11 00:30:19;;;;;;;16.53;13.10;;;4.30;99.90;;;;;;4994990;28;20332;-89
2021/12/11 00:32:46;;;;;;;17.00;12.47;;;4.30;99.90;;;;;;5050282;28;20606;-82
2021/12/11 00:35:20;;;;;;;14.50;11.43;;;4.30;99.90;;;;;;5067825;28;20244;-87
2021/12/11 00:37:48;;;;;;;15.13;11.80;;;4.30;99.90;;;;;;5070175;28;20193;-87
2021/12/11 00:40:20;;;;;;;18.50;13.63;;;4.30;99.90;;;;;;5071591;28;20604;-84
2021/12/11 00:42:49;;;;;;;22.23;15.20;;;4.30;99.90;;;;;;5070233;28;20371;-88
2021/12/11 00:45:20;;;;;;;17.53;13.20;;;4.30;99.90;;;;;;5082720;28;20208;-88
2021/12/11 00:47:51;;;;;;;17.30;11.97;;;4.30;99.90;;;;;;5090932;28;20227;-82
2021/12/11 00:50:21;;;;;;;18.83;13.67;;;4.40;99.90;;;;;;5074199;28;20193;-89
2021/12/11 00:52:51;;;;;;;18.83;13.90;;;4.30;99.90;;;;;;5070460;28;20229;-88
2021/12/11 00:55:22;;;;;;;20.13;14.10;;;4.40;99.90;;;;;;5070039;28;20521;-88
2021/12/11 00:58:00;;;;;;;18.20;13.40;;;4.40;99.90;;;;;;5111987;28;20219;-87
2021/12/11 01:00:28;;;;;;;17.97;12.67;;;4.40;99.90;;;;;;5111341;28;20210;-87
2021/12/11 01:02:57;;;;;;;18.80;13.43;;;4.30;99.90;;;;;;5122737;27;20210;-84
2021/12/11 01:05:25;;;;;;;17.57;12.40;;;4.40;99.90;;;;;;5133241;27;20697;-83
2021/12/11 01:07:53;;;;;;;18.07;12.70;;;4.30;99.90;;;;;;5132675;27;20195;-88
2021/12/11 01:10:25;;;;;;;20.13;14.10;;;4.30;99.90;;;;;;5132139;27;20207;-89
2021/12/11 01:12:59;;;;;;;22.97;14.93;;;4.30;99.90;;;;;;5129805;27;20326;-87
2021/12/11 01:15:31;;;;;;;20.73;14.00;;;4.30;99.90;;;;;;5119956;27;20210;-88
2021/12/11 01:18:13;;;;;;;18.43;13.57;;;4.30;99.90;;;;;;5109986;28;20196;-85
2021/12/11 01:20:49;;;;;;;24.57;16.90;;;4.30;99.90;;;;;;5111144;28;20200;-88
2021/12/11 01:23:34;;;;;;;21.67;15.00;;;4.30;99.90;;;;;;5111513;28;20238;-90
2021/12/11 01:26:04;;;;;;;23.63;16.80;;;4.30;99.90;;;;;;5111579;28;20499;-87
2021/12/11 01:28:32;;;;;;;22.67;16.20;;;4.30;99.90;;;;;;5113107;27;21911;-82
2021/12/11 01:31:00;;;;;;;21.10;14.67;;;4.30;99.90;;;;;;5131534;27;20210;-87
2021/12/11 01:33:27;;;;;;;17.20;14.63;;;4.30;99.90;;;;;;5119614;27;20243;-80
2021/12/11 01:35:55;;;;;;;21.00;14.30;;;4.30;99.90;;;;;;5132325;27;20490;-89
2021/12/11 01:38:24;;;;;;;21.60;15.50;;;4.30;99.90;;;;;;5131142;27;20203;-82
2021/12/11 01:40:59;;;;;;;20.80;15.63;;;4.30;99.90;;;;;;5131595;27;20298;-88
2021/12/11 01:43:31;;;;;;;23.67;16.83;;;4.30;99.90;;;;;;5131641;27;20203;-85
2021/12/11 01:46:00;;;;;;;17.87;14.10;;;4.30;99.90;;;;;;5147956;27;20206;-86
2021/12/11 01:48:30;;;;;;;19.23;13.83;;;4.30;99.90;;;;;;5150322;27;20214;-89
2021/12/11 01:51:01;;;;;;;20.73;14.50;;;4.30;99.90;;;;;;5153789;27;20199;-84
2021/12/11 01:53:34;;;;;;;18.17;14.33;;;4.40;99.90;;;;;;5142017;27;20215;-89
2021/12/11 01:56:04;;;;;;;20.30;13.33;;;4.40;99.90;;;;;;5131924;28;20195;-84
2021/12/11 01:58:36;;;;;;;15.10;12.03;;;4.30;99.90;;;;;;5131937;28;20219;-88
2021/12/11 02:01:10;;;;;;;19.97;14.63;;;4.40;99.90;;;;;;5132578;27;20271;-89
2021/12/11 02:03:38;;;;;;;18.17;13.60;;;4.40;99.90;;;;;;5130707;27;20190;-87
2021/12/11 02:06:08;;;;;;;16.77;12.60;;;4.40;99.90;;;;;;5129988;28;20203;-88
2021/12/11 02:08:38;;;;;;;19.37;12.47;;;4.40;99.90;;;;;;5132621;28;20191;-87
2021/12/11 02:11:09;;;;;;;19.53;13.97;;;4.40;99.90;;;;;;5132723;27;20206;-87
2021/12/11 02:13:45;;;;;;;22.40;15.40;;;4.40;99.90;;;;;;5132211;28;20310;-88
2021/12/11 02:16:19;;;;;;;26.47;17.37;;;4.40;99.90;;;;;;5150438;27;20270;-88
2021/12/11 02:18:49;;;;;;;28.10;17.13;;;4.40;99.90;;;;;;5153760;27;20193;-87
2021/12/11 02:21:25;;;;;;;24.53;16.60;;;4.40;99.90;;;;;;5151976;27;20586;-86
2021/12/11 02:23:57;;;;;;;22.73;16.50;;;4.40;99.90;;;;;;5149857;27;20202;-83
2021/12/11 02:26:26;;;;;;;24.17;15.60;;;4.40;99.90;;;;;;5149869;27;20205;-82
2021/12/11 02:28:59;;;;;;;20.43;14.33;;;4.40;99.90;;;;;;5153214;27;20225;-87
2021/12/11 02:31:29;;;;;;;22.70;15.30;;;4.40;99.90;;;;;;5151849;27;20195;-87
2021/12/11 02:34:07;;;;;;;24.70;16.80;;;4.40;99.90;;;;;;5136578;27;20291;-87
2021/12/11 02:36:38;;;;;;;25.00;17.03;;;4.40;99.90;;;;;;5131085;28;20198;-81
2021/12/11 02:39:10;;;;;;;21.50;15.23;;;4.40;99.90;;;;;;5130400;27;20210;-79
2021/12/11 02:41:41;;;;;;;24.33;16.83;;;4.40;99.90;;;;;;5130152;28;20202;-86
2021/12/11 02:44:12;;;;;;;22.03;14.83;;;4.40;99.90;;;;;;5130857;28;20195;-80
2021/12/11 02:46:45;;;;;;;21.60;15.53;;;4.50;99.90;;;;;;5131388;27;20289;-84
2021/12/11 02:49:17;;;;;;;22.67;15.73;;;4.50;99.90;;;;;;5132212;28;20198;-86
2021/12/11 02:51:49;;;;;;;25.00;15.93;;;4.50;99.90;;;;;;5132222;27;20214;-87
2021/12/11 02:54:25;;;;;;;27.13;17.30;;;4.50;99.90;;;;;;5131566;28;20207;-84
2021/12/11 02:56:56;;;;;;;26.73;17.10;;;4.50;99.90;;;;;;5131847;27;20225;-87
2021/12/11 02:59:28;;;;;;;29.17;16.97;;;4.50;99.90;;;;;;5131401;27;20188;-85
2021/12/11 03:01:58;;;;;;;26.50;17.10;;;4.50;99.90;;;;;;5135423;27;20204;-87
2021/12/11 03:04:32;;;;;;;30.07;17.67;;;4.60;99.90;;;;;;5135686;27;20191;-87
2021/12/11 03:07:01;;;;;;;30.07;16.53;;;4.60;99.90;;;;;;5135507;27;20203;-87
2021/12/11 03:09:33;;;;;;;33.07;18.37;;;4.60;99.90;;;;;;5134848;27;20195;-86
2021/12/11 03:12:03;;;;;;;28.23;17.37;;;4.60;99.90;;;;;;5133750;27;20248;-82
2021/12/11 03:14:32;;;;;;;34.27;18.27;;;4.60;99.90;;;;;;5153061;27;20245;-84
2021/12/11 03:17:00;;;;;;;32.43;18.40;;;4.60;99.90;;;;;;5155516;27;20272;-88
2021/12/11 03:19:30;;;;;;;34.93;18.33;;;4.60;99.90;;;;;;5151588;27;20198;-88
2021/12/11 03:21:59;;;;;;;29.87;17.33;;;4.60;99.90;;;;;;5147915;27;20219;-88
2021/12/11 03:24:28;;;;;;;30.60;16.57;;;4.60;99.90;;;;;;5135220;27;20857;-88
2021/12/11 03:26:57;;;;;;;30.53;17.87;;;4.60;99.90;;;;;;5135669;27;20194;-86
2021/12/11 03:29:25;;;;;;;28.77;16.87;;;4.60;99.90;;;;;;5135155;27;20199;-86
2021/12/11 03:31:53;;;;;;;32.30;17.07;;;4.70;99.90;;;;;;5131950;27;20226;-87
2021/12/11 03:34:23;;;;;;;27.60;15.63;;;4.70;99.90;;;;;;5131858;27;20235;-87
2021/12/11 03:36:50;;;;;;;28.43;17.37;;;4.70;99.90;;;;;;5131800;27;20184;-85
2021/12/11 03:39:22;;;;;;;36.27;17.97;;;4.70;99.90;;;;;;5145236;27;20217;-85
2021/12/11 03:41:50;;;;;;;37.63;18.87;;;4.70;99.90;;;;;;5155905;27;20198;-84
2021/12/11 03:44:19;;;;;;;31.80;18.13;;;4.80;99.90;;;;;;5155521;27;20199;-85
2021/12/11 03:46:48;;;;;;;33.00;18.97;;;4.80;99.90;;;;;;5155804;27;20206;-85
2021/12/11 03:49:18;;;;;;;40.03;20.90;;;4.90;99.90;;;;;;5156040;27;20199;-85
2021/12/11 03:51:47;;;;;;;38.43;19.60;;;4.80;99.90;;;;;;5146193;27;20203;-86
2021/12/11 03:54:17;;;;;;;34.00;18.40;;;4.90;99.90;;;;;;5134855;27;20234;-86
2021/12/11 03:56:44;;;;;;;29.90;18.60;;;4.90;99.90;;;;;;5134737;27;20219;-85
2021/12/11 03:59:13;;;;;;;33.47;17.43;;;4.90;99.90;;;;;;5138206;27;20202;-83
2021/12/11 04:01:46;;;;;;;38.73;17.63;;;5.00;99.90;;;;;;5155135;27;20199;-85
2021/12/11 04:04:16;;;;;;;38.10;16.87;;;5.10;99.90;;;;;;5150580;27;20215;-86
2021/12/11 04:06:45;;;;;;;31.53;11.47;;;5.10;99.90;;;;;;5133549;27;20880;-86
2021/12/11 04:09:16;;;;;;;12.27;3.47;;;5.20;99.90;;;;;;5133888;27;20199;-87
2021/12/11 04:11:48;;;;;;;10.50;3.47;;;5.50;99.90;;;;;;5132538;27;20222;-83
2021/12/11 04:14:20;;;;;;;14.53;3.50;;;5.90;99.90;;;;;;5134283;27;20227;-87
2021/12/11 04:16:50;;;;;;;13.03;3.37;;;6.50;99.90;;;;;;5134492;27;20199;-87
2021/12/11 04:19:17;;;;;;;12.20;3.17;;;6.60;99.90;;;;;;5134152;27;20207;-87
2021/12/11 04:21:44;;;;;;;7.33;2.90;;;6.80;99.90;;;;;;5133760;27;20195;-88
2021/12/11 04:24:18;;;;;;;9.67;2.73;;;7.00;99.90;;;;;;5133918;27;20591;-87
2021/12/11 04:26:45;;;;;;;8.30;2.93;;;7.10;99.90;;;;;;5143789;27;20699;-86
2021/12/11 04:29:12;;;;;;;8.80;2.57;;;7.20;99.90;;;;;;5152538;27;20234;-86
2021/12/11 04:31:42;;;;;;;8.10;2.73;;;7.30;99.90;;;;;;5132933;27;20188;-85
2021/12/11 04:34:13;;;;;;;10.27;2.73;;;7.40;99.90;;;;;;5132803;27;20280;-84
2021/12/11 04:36:44;;;;;;;13.27;2.70;;;7.50;99.90;;;;;;5132156;27;20199;-83
2021/12/11 04:39:13;;;;;;;10.20;3.73;;;7.60;99.90;;;;;;5148746;27;20203;-86
2021/12/11 04:41:51;;;;;;;14.30;2.97;;;7.70;99.90;;;;;;5153883;27;20202;-86
2021/12/11 04:44:23;;;;;;;8.87;2.50;;;7.70;99.90;;;;;;5152975;27;20259;-84
2021/12/11 04:46:51;;;;;;;9.13;2.27;;;7.80;99.90;;;;;;5152682;27;20201;-82
2021/12/11 04:49:28;;;;;;;13.50;3.37;;;7.90;99.90;;;;;;5134628;27;20990;-82
2021/12/11 04:52:03;;;;;;;12.23;3.07;;;7.90;99.90;;;;;;5129237;27;20211;-86
2021/12/11 04:54:45;;;;;;;10.73;2.30;;;7.90;99.90;;;;;;5130381;27;20305;-90
2021/12/11 05:00:07;;;;;;;8.80;2.70;;;7.90;99.90;;;;;;5132191;27;20251;-85
2021/12/11 05:05:48;;;;;;;13.50;2.93;;;7.80;99.90;;;;;;5084319;27;20207;-86
2021/12/11 05:08:49;;;;;;;10.10;3.57;;;7.80;99.90;;;;;;5133829;27;20215;-85
2021/12/11 05:11:15;;;;;;;18.53;3.70;;;7.80;99.90;;;;;;5133384;27;20568;-88
2021/12/11 05:13:43;;;;;;;11.93;4.07;;;7.70;99.90;;;;;;5132145;27;20227;-86
2021/12/11 05:16:12;;;;;;;17.70;4.50;;;7.60;99.90;;;;;;5132728;27;20202;-87
2021/12/11 05:18:41;;;;;;;14.90;4.27;;;7.50;99.90;;;;;;5137401;27;20202;-88
2021/12/11 05:21:13;;;;;;;17.30;7.30;;;7.40;99.90;;;;;;5154284;27;20217;-86
2021/12/11 05:23:40;;;;;;;22.97;9.33;;;7.40;99.90;;;;;;5152397;27;20490;-87
2021/12/11 05:26:07;;;;;;;30.90;14.97;;;7.20;99.90;;;;;;5136445;27;20218;-84
2021/12/11 05:28:35;;;;;;;29.33;17.67;;;7.10;99.90;;;;;;5132786;27;20195;-88
2021/12/11 05:31:04;;;;;;;31.10;18.50;;;6.70;99.90;;;;;;5132197;27;20203;-88
2021/12/11 05:33:31;;;;;;;34.23;18.83;;;6.30;99.90;;;;;;5130723;27;20639;-85
2021/12/11 05:35:58;;;;;;;30.40;17.97;;;6.00;99.90;;;;;;5132056;27;20194;-84
2021/12/11 05:38:27;;;;;;;30.43;17.87;;;5.70;99.90;;;;;;5140693;27;20206;-88
2021/12/11 05:40:57;;;;;;;29.77;17.07;;;5.60;99.90;;;;;;5153490;27;20198;-86
2021/12/11 05:43:25;;;;;;;29.10;16.73;;;5.50;99.90;;;;;;5152369;27;20187;-86
2021/12/11 05:45:52;;;;;;;26.93;16.73;;;5.30;99.90;;;;;;5146522;27;20214;-84
2021/12/11 05:48:19;;;;;;;28.40;16.63;;;5.30;99.90;;;;;;5132502;27;20219;-87
2021/12/11 05:50:50;;;;;;;30.17;16.97;;;5.30;99.90;;;;;;5132000;27;20203;-86
2021/12/11 05:53:18;;;;;;;24.07;16.67;;;5.20;99.90;;;;;;5131821;27;20192;-87
2021/12/11 05:55:48;;;;;;;23.70;16.00;;;5.10;99.90;;;;;;5137084;27;20274;-81
2021/12/11 05:58:27;;;;;;;26.87;15.97;;;5.00;99.90;;;;;;5153034;27;20230;-85
2021/12/11 06:00:54;;;;;;;28.83;16.83;;;5.00;99.90;;;;;;5153392;27;20195;-82
2021/12/11 06:03:22;;;;;;;26.73;17.00;;;5.00;99.90;;;;;;5139968;27;20206;-82
2021/12/11 06:05:49;;;;;;;30.57;18.00;;;4.90;99.90;;;;;;5146188;28;20203;-80
2021/12/11 06:08:16;;;;;;;26.83;16.93;;;4.90;99.90;;;;;;5146975;28;20213;-82
2021/12/11 06:10:44;;;;;;;27.37;15.80;;;4.90;99.90;;;;;;5141728;27;20211;-88
2021/12/11 06:13:12;;;;;;;31.20;17.97;;;5.00;99.90;;;;;;5140167;28;20264;-86
2021/12/11 06:15:40;;;;;;;29.93;17.50;;;5.00;99.90;;;;;;5130805;28;20227;-83
2021/12/11 06:18:10;;;;;;;27.00;17.27;;;5.10;99.90;;;;;;5130343;27;20207;-83
2021/12/11 06:20:37;;;;;;;30.67;18.43;;;5.00;99.90;;;;;;5130835;28;20211;-87
2021/12/11 06:23:03;;;;;;;35.40;18.13;;;5.00;99.90;;;;;;5148817;27;20206;-85
2021/12/11 06:25:33;;;;;;;33.83;19.80;;;5.00;99.90;;;;;;5142070;27;20206;-81
2021/12/11 06:28:00;;;;;;;26.37;17.07;;;4.90;99.90;;;;;;5130606;28;20206;-83
2021/12/11 06:30:28;;;;;;;29.20;18.07;;;5.00;99.90;;;;;;5132228;27;20196;-88
2021/12/11 06:32:56;;;;;;;31.63;18.83;;;4.90;99.90;;;;;;5152421;27;20601;-87
2021/12/11 06:35:28;;;;;;;32.43;18.53;;;4.90;99.90;;;;;;5152918;27;20238;-86
2021/12/11 06:37:55;;;;;;;36.50;18.63;;;4.90;99.90;;;;;;5147813;27;20191;-86
2021/12/11 06:40:24;;;;;;;34.77;18.30;;;4.90;99.90;;;;;;5135341;27;20184;-86
2021/12/11 06:42:51;;;;;;;32.03;20.07;;;4.90;99.90;;;;;;5135941;27;20203;-84
2021/12/11 06:45:18;;;;;;;30.60;18.53;;;4.80;99.90;;;;;;5147584;27;20248;-86
2021/12/11 06:47:46;;;;;;;27.73;17.17;;;4.80;99.90;;;;;;5138767;27;20203;-83
2021/12/11 06:50:13;;;;;;;29.53;17.50;;;4.80;99.90;;;;;;5135577;27;20590;-87
2021/12/11 06:52:41;;;;;;;25.83;16.20;;;4.70;99.90;;;;;;5135054;27;20245;-81
2021/12/11 06:55:09;;;;;;;27.50;17.00;;;4.60;99.90;;;;;;5134705;27;20227;-86
2021/12/11 06:57:36;;;;;;;24.30;15.67;;;4.50;99.90;;;;;;5135231;27;20227;-87
2021/12/11 07:00:05;;;;;;;20.97;13.83;;;4.50;99.90;;;;;;5135333;27;20206;-86
2021/12/11 07:02:32;;;;;;;21.87;14.23;;;4.50;99.90;;;;;;5134459;27;20203;-87
2021/12/11 07:05:00;;;;;;;20.40;13.50;;;4.40;99.90;;;;;;5134870;27;20206;-88
2021/12/11 07:07:33;;;;;;;18.43;13.63;;;4.40;99.90;;;;;;5134329;27;20203;-88
2021/12/11 07:10:00;;;;;;;16.70;12.77;;;4.30;99.90;;;;;;5134533;27;20195;-86
2021/12/11 07:12:28;;;;;;;16.10;12.40;;;4.20;99.90;;;;;;5134167;27;20211;-84
2021/12/11 07:14:55;;;;;;;20.17;13.20;;;4.20;99.90;;;;;;5136143;27;20222;-86
2021/12/11 07:17:23;;;;;;;19.73;13.63;;;4.10;99.90;;;;;;5133636;27;20203;-83
2021/12/11 07:19:50;;;;;;;15.53;12.27;;;4.10;99.90;;;;;;5135013;27;20202;-87
2021/12/11 07:22:19;;;;;;;16.83;11.70;;;4.00;99.90;;;;;;5132885;27;20622;-86
2021/12/11 07:24:49;;;;;;;17.17;12.23;;;4.00;99.90;;;;;;5153413;27;20203;-87
2021/12/11 07:27:17;;;;;;;17.07;12.17;;;3.90;99.90;;;;;;5151151;27;20286;-87
2021/12/11 07:29:44;;;;;;;15.60;10.83;;;3.90;99.90;;;;;;5132341;27;20214;-85
2021/12/11 07:32:12;;;;;;;17.70;12.60;;;3.80;99.90;;;;;;5133185;27;20199;-81
2021/12/11 07:34:41;;;;;;;14.43;11.57;;;3.80;99.90;;;;;;5131973;27;20223;-81
2021/12/11 07:37:09;;;;;;;18.93;13.63;;;3.70;99.90;;;;;;5133258;27;20199;-82
2021/12/11 07:39:38;;;;;;;21.67;14.87;;;3.70;99.90;;;;;;5132453;27;20210;-87
2021/12/11 07:42:06;;;;;;;19.67;13.30;;;3.60;99.90;;;;;;5134396;27;20210;-80
2021/12/11 07:44:32;;;;;;;16.57;12.83;;;3.60;99.90;;;;;;5152247;27;20205;-80
2021/12/11 07:47:01;;;;;;;15.93;11.30;;;3.50;99.90;;;;;;5133914;27;20203;-87
2021/12/11 07:49:28;;;;;;;21.10;13.93;;;3.50;99.90;;;;;;5133162;27;20199;-86
2021/12/11 07:51:56;;;;;;;19.17;14.17;;;3.50;99.90;;;;;;5132156;27;20188;-87
2021/12/11 07:54:23;;;;;;;19.47;13.80;;;3.40;99.90;;;;;;5132865;27;20223;-87
2021/12/11 07:56:53;;;;;;;16.33;12.23;;;3.40;99.90;;;;;;5131030;27;20226;-83
2021/12/11 07:59:19;;;;;;;18.60;12.27;;;3.30;99.90;;;;;;5133544;27;20233;-80
2021/12/11 08:01:50;;;;;;;18.43;12.20;;;3.30;99.90;;;;;;5133572;27;20199;-88
2021/12/11 08:04:18;;;;;;;19.07;12.40;;;3.30;99.90;;;;;;5134543;27;20203;-87
2021/12/11 08:06:44;;;;;;;16.83;12.60;;;3.20;99.90;;;;;;5135118;27;20754;-89
2021/12/11 08:09:15;;;;;;;22.47;14.03;;;3.20;99.90;;;;;;5135598;27;20214;-87
2021/12/11 08:11:43;;;;;;;21.20;13.77;;;3.20;99.90;;;;;;5134848;27;20203;-86
2021/12/11 08:14:12;;;;;;;22.70;14.77;;;3.20;99.90;;;;;;5134266;27;20202;-86
2021/12/11 08:16:46;;;;;;;22.43;15.13;;;3.20;99.90;;;;;;5133371;27;20380;-89
2021/12/11 08:19:16;;;;;;;19.33;13.90;;;3.20;99.90;;;;;;5134279;27;20199;-88
2021/12/11 08:21:42;;;;;;;22.03;14.90;;;3.20;99.90;;;;;;5132396;27;20210;-89
2021/12/11 08:24:09;;;;;;;24.57;18.17;;;3.20;99.90;;;;;;5145477;27;20206;-88
2021/12/11 08:26:40;;;;;;;31.20;16.93;;;3.20;99.90;;;;;;5151690;27;20203;-86
2021/12/11 08:29:08;;;;;;;22.47;14.73;;;3.20;99.90;;;;;;5154438;27;20222;-88
2021/12/11 08:31:40;;;;;;;23.00;16.03;;;3.20;99.90;;;;;;5138055;27;20791;-84
2021/12/11 08:34:08;;;;;;;25.50;16.17;;;3.30;99.90;;;;;;5132560;27;20238;-88
2021/12/11 08:36:35;;;;;;;23.90;15.20;;;3.30;99.90;;;;;;5133565;27;20210;-89
2021/12/11 08:39:05;;;;;;;19.73;15.10;;;3.30;99.90;;;;;;5133633;27;20526;-87
2021/12/11 08:41:33;;;;;;;21.27;15.30;;;3.40;99.90;;;;;;5095530;27;20699;-90
2021/12/11 08:44:07;;;;;;;23.73;15.03;;;3.40;99.90;;;;;;5135697;27;20603;-83
2021/12/11 08:46:35;;;;;;;27.17;17.27;;;3.50;99.90;;;;;;5146376;27;20209;-87
2021/12/11 08:49:06;;;;;;;25.73;16.80;;;3.50;99.90;;;;;;5140493;27;20191;-83
2021/12/11 08:51:37;;;;;;;25.43;17.03;;;3.60;99.90;;;;;;5136611;27;20195;-86
2021/12/11 08:54:05;;;;;;;29.83;18.63;;;3.60;99.90;;;;;;5144169;27;20201;-86
2021/12/11 08:56:34;;;;;;;28.17;18.23;;;3.70;99.90;;;;;;5150925;27;20226;-89
2021/12/11 08:59:04;;;;;;;28.97;18.03;;;3.70;99.90;;;;;;5147249;27;20267;-87
2021/12/11 09:01:38;;;;;;;27.37;17.23;;;3.80;99.90;;;;;;5151952;27;20195;-88
2021/12/11 09:04:12;;;;;;;25.50;17.23;;;3.80;99.90;;;;;;5132482;27;20207;-80
2021/12/11 09:06:42;;;;;;;27.07;16.97;;;3.90;99.90;;;;;;5135301;27;20203;-80
2021/12/11 09:09:14;;;;;;;27.73;16.60;;;4.00;99.90;;;;;;5151911;27;20197;-87
2021/12/11 09:11:44;;;;;;;25.70;17.17;;;4.00;99.90;;;;;;5153024;27;20206;-86
2021/12/11 09:14:14;;;;;;;28.13;17.10;;;4.10;99.90;;;;;;5149305;27;20205;-86
2021/12/11 09:16:45;;;;;;;28.07;18.17;;;4.20;99.90;;;;;;5151194;27;20246;-79
2021/12/11 09:19:18;;;;;;;24.73;16.57;;;4.30;99.90;;;;;;5142846;27;20554;-89
2021/12/11 09:21:53;;;;;;;28.60;18.67;;;4.30;99.90;;;;;;5129787;27;20586;-87
2021/12/11 09:24:25;;;;;;;31.33;19.57;;;4.40;99.90;;;;;;5129519;27;20285;-81
2021/12/11 09:26:59;;;;;;;29.43;19.80;;;4.50;99.90;;;;;;5143980;27;20209;-81
2021/12/11 09:29:30;;;;;;;31.00;20.03;;;4.50;99.90;;;;;;5148007;27;20194;-84
2021/12/11 09:32:09;;;;;;;30.57;20.70;;;4.50;99.90;;;;;;5149505;27;20207;-81
2021/12/11 09:34:40;;;;;;;35.00;22.77;;;4.60;99.90;;;;;;5139535;27;20227;-81
2021/12/11 09:37:10;;;;;;;32.57;20.63;;;4.60;99.90;;;;;;5130592;27;20263;-85
2021/12/11 09:39:40;;;;;;;33.70;20.23;;;4.60;99.90;;;;;;5131503;27;20464;-86
2021/12/11 09:42:07;;;;;;;29.53;19.57;;;4.50;99.90;;;;;;5140749;27;20198;-85
2021/12/11 09:44:38;;;;;;;30.63;20.67;;;4.50;99.90;;;;;;5152284;27;20277;-81
2021/12/11 09:47:08;;;;;;;32.70;21.53;;;4.50;99.90;;;;;;5152665;27;20206;-88
2021/12/11 09:49:37;;;;;;;33.60;20.73;;;4.50;99.90;;;;;;5151501;27;20201;-86
2021/12/11 09:52:16;;;;;;;36.77;21.87;;;4.50;99.90;;;;;;5133683;27;20211;-83
2021/12/11 09:54:44;;;;;;;36.33;22.87;;;4.60;99.90;;;;;;5141864;27;20259;-82
2021/12/11 09:57:14;;;;;;;38.70;22.27;;;4.60;99.90;;;;;;5150909;27;20645;-87
2021/12/11 09:59:43;;;;;;;39.23;22.63;;;4.60;99.90;;;;;;5151064;27;20495;-85
2021/12/11 10:02:13;;;;;;;48.10;23.80;;;4.60;99.90;;;;;;5152832;27;20197;-90
2021/12/11 10:04:46;;;;;;;44.53;23.77;;;4.70;99.90;;;;;;5132472;27;20195;-88
2021/12/11 10:07:28;;;;;;;43.07;22.30;;;4.70;99.90;;;;;;5132367;28;20293;-84
2021/12/11 10:10:00;;;;;;;35.90;22.43;;;4.80;99.90;;;;;;5133454;27;20187;-85
2021/12/11 10:12:29;;;;;;;39.67;22.33;;;4.80;99.90;;;;;;5147291;27;20194;-91
2021/12/11 10:15:01;;;;;;;44.17;21.33;;;4.90;99.90;;;;;;5156300;27;20629;-81
2021/12/11 10:17:34;;;;;;;39.30;21.60;;;4.90;99.90;;;;;;5156238;27;20187;-81
2021/12/11 10:20:06;;;;;;;36.17;20.27;;;5.00;99.90;;;;;;5146579;27;20203;-82
2021/12/11 10:22:36;;;;;;;43.70;24.57;;;5.10;99.90;;;;;;5137369;27;20195;-92
2021/12/11 10:25:07;;;;;;;42.57;23.93;;;5.20;99.90;;;;;;5137636;27;20188;-90
2021/12/11 10:27:34;;;;;;;39.77;22.37;;;5.40;99.90;;;;;;5145689;27;20194;-84
2021/12/11 10:30:06;;;;;;;36.83;22.20;;;5.50;99.90;;;;;;5155170;27;20198;-80
2021/12/11 10:32:34;;;;;;;39.50;21.07;;;5.60;99.90;;;;;;5134540;27;20195;-79
2021/12/11 10:35:05;;;;;;;37.80;20.73;;;5.60;99.90;;;;;;5134143;27;20520;-91
2021/12/11 10:37:36;;;;;;;22.57;12.07;;;5.70;99.90;;;;;;5134325;27;20291;-88
2021/12/11 10:40:08;;;;;;;18.40;10.53;;;5.90;99.90;;;;;;5133839;27;20279;-89
2021/12/11 10:42:36;;;;;;;21.57;10.27;;;6.10;99.90;;;;;;5135856;27;20191;-87
2021/12/11 10:45:10;;;;;;;19.80;10.77;;;6.20;99.90;;;;;;5136655;27;20606;-92
2021/12/11 10:47:42;;;;;;;16.00;8.37;;;6.20;99.90;;;;;;5134141;27;20195;-81
2021/12/11 10:50:15;;;;;;;18.80;9.33;;;6.30;99.90;;;;;;5136091;27;20202;-90
2021/12/11 10:52:42;;;;;;;17.77;8.93;;;6.40;99.90;;;;;;5134277;27;20528;-89
2021/12/11 10:55:17;;;;;;;17.97;8.97;;;6.50;99.90;;;;;;5137081;27;20912;-88
2021/12/11 10:57:44;;;;;;;15.47;8.40;;;6.50;99.90;;;;;;5136622;27;20225;-85
2021/12/11 11:00:18;;;;;;;19.90;8.03;;;6.60;99.90;;;;;;5136667;27;20199;-92
2021/12/11 11:02:45;;;;;;;19.97;8.67;;;6.70;99.90;;;;;;5134876;27;20234;-88
2021/12/11 11:05:16;;;;;;;11.47;6.60;;;6.70;99.90;;;;;;5143051;27;20205;-90
2021/12/11 11:07:44;;;;;;;14.57;5.77;;;6.80;99.90;;;;;;5156340;27;20198;-87
2021/12/11 11:10:14;;;;;;;12.40;6.73;;;6.80;99.90;;;;;;5157352;27;20241;-81
2021/12/11 11:12:42;;;;;;;14.07;6.53;;;6.80;99.90;;;;;;5143182;27;20242;-88
2021/12/11 11:15:10;;;;;;;16.37;7.43;;;6.80;99.90;;;;;;5136174;27;20203;-84
2021/12/11 11:17:39;;;;;;;10.10;5.53;;;6.90;99.90;;;;;;5135809;27;20210;-85
2021/12/11 11:20:10;;;;;;;15.70;5.23;;;6.90;99.90;;;;;;5143941;27;20208;-82
2021/12/11 11:22:40;;;;;;;12.00;5.07;;;7.00;99.90;;;;;;5159825;27;20175;-81
2021/12/11 11:25:12;;;;;;;10.80;4.10;;;7.00;99.90;;;;;;5166676;27;20247;-81
2021/12/11 11:27:39;;;;;;;12.30;2.57;;;7.10;99.90;;;;;;5168119;27;20197;-85
2021/12/11 11:30:12;;;;;;;11.87;2.47;;;7.10;99.90;;;;;;5155625;27;20199;-89
2021/12/11 11:32:40;;;;;;;8.20;2.07;;;7.20;99.90;;;;;;5139542;27;20203;-89
2021/12/11 11:35:10;;;;;;;17.47;2.63;;;7.20;99.90;;;;;;5134548;27;20258;-87
2021/12/11 11:37:38;;;;;;;6.57;3.07;;;7.20;99.90;;;;;;5135106;27;20482;-83
2021/12/11 11:40:08;;;;;;;9.50;3.70;;;7.30;99.90;;;;;;5133900;27;20377;-86
2021/12/11 11:42:35;;;;;;;11.53;4.33;;;7.40;99.90;;;;;;5133614;27;20202;-86
2021/12/11 11:45:04;;;;;;;10.87;3.63;;;7.50;99.90;;;;;;5134037;27;20306;-88
2021/12/11 11:47:31;;;;;;;8.47;3.73;;;7.50;99.90;;;;;;5133774;27;20221;-88
2021/12/11 11:50:02;;;;;;;15.93;4.73;;;7.60;99.90;;;;;;5134465;27;20536;-83
2021/12/11 11:52:29;;;;;;;11.50;4.87;;;7.60;99.90;;;;;;5134202;27;20216;-89
2021/12/11 11:55:00;;;;;;;7.37;2.17;;;7.60;99.90;;;;;;5133604;27;20199;-90
2021/12/11 11:57:31;;;;;;;9.60;2.00;;;7.70;99.90;;;;;;5132336;27;20227;-89
2021/12/11 12:00:00;;;;;;;7.80;2.07;;;7.70;99.90;;;;;;5132865;27;20203;-90
2021/12/11 12:02:30;;;;;;;3.53;1.70;;;7.70;99.90;;;;;;5132555;27;20199;-89
2021/12/11 12:05:01;;;;;;;9.63;2.20;;;7.70;99.90;;;;;;5132071;27;20211;-88
2021/12/11 12:07:30;;;;;;;11.00;2.20;;;7.80;99.90;;;;;;5132666;27;20206;-92
2021/12/11 12:10:00;;;;;;;8.63;1.53;;;7.90;99.90;;;;;;5131310;27;20299;-83
2021/12/11 12:12:27;;;;;;;11.50;1.43;;;8.00;99.90;;;;;;5132729;27;20542;-91
2021/12/11 12:14:59;;;;;;;7.67;1.40;;;8.10;99.90;;;;;;5142631;27;20217;-80
2021/12/11 12:17:30;;;;;;;7.40;1.20;;;8.20;99.90;;;;;;5152507;27;20203;-81
2021/12/11 12:19:57;;;;;;;7.37;1.10;;;8.20;99.90;;;;;;5152250;27;20198;-81
2021/12/11 12:22:28;;;;;;;10.67;2.40;;;8.30;99.90;;;;;;5156146;27;20202;-87
2021/12/11 12:24:59;;;;;;;8.63;1.23;;;8.40;99.90;;;;;;5139590;27;20219;-85
2021/12/11 12:27:29;;;;;;;4.90;1.13;;;8.40;99.90;;;;;;5132601;27;20579;-86
2021/12/11 12:29:59;;;;;;;8.60;0.90;;;8.50;99.90;;;;;;5132148;27;20207;-86
2021/12/11 12:32:29;;;;;;;5.17;1.20;;;8.50;99.90;;;;;;5131064;27;20195;-89
2021/12/11 12:35:00;;;;;;;6.53;1.90;;;8.50;99.90;;;;;;5130990;27;20634;-85
2021/12/11 12:37:28;;;;;;;9.60;1.80;;;8.50;99.90;;;;;;5129094;27;20657;-81
2021/12/11 12:39:59;;;;;;;7.83;1.63;;;8.60;99.90;;;;;;5133223;27;20196;-88
2021/12/11 12:42:33;;;;;;;10.97;1.60;;;8.70;99.90;;;;;;5138735;27;20518;-89
2021/12/11 12:45:05;;;;;;;11.13;1.90;;;8.60;99.90;;;;;;5153261;27;20260;-88
2021/12/11 12:47:37;;;;;;;7.73;1.93;;;8.70;99.90;;;;;;5141688;27;20238;-90
2021/12/11 12:50:09;;;;;;;7.97;2.00;;;8.80;99.90;;;;;;5132418;27;20207;-86
2021/12/11 12:52:42;;;;;;;8.87;1.97;;;8.80;99.90;;;;;;5134771;27;20207;-90
2021/12/11 12:55:19;;;;;;;11.63;2.20;;;8.80;99.90;;;;;;5153283;27;20621;-87
2021/12/11 12:57:49;;;;;;;9.87;2.27;;;8.90;99.90;;;;;;5151844;27;20226;-80
2021/12/11 13:00:23;;;;;;;5.93;2.33;;;8.90;99.90;;;;;;5152491;27;20215;-89